Time;durP1;ratioP1;P1;durP2;ratioP2;P2;SDS_P1;SDS_P2;PMS_P1;PMS_P2;Temp;Humidity;BMP_temperature;BMP_pressure;BME280_temperature;BME280_humidity;BME280_pressure;Samples;Min_cycle;Max_cycle;Signal;HPM_P1;HPM_P2
2023/04/28 00:02:18;;;;;;;3.70;2.63;;;;;;;;;;5051864;28;20416;-84
2023/04/28 00:04:44;;;;;;;4.22;2.35;;;;;;;;;;5051486;28;20412;-84
2023/04/28 00:07:10;;;;;;;2.80;2.60;;;;;;;;;;5051506;28;20885;-82
2023/04/28 00:09:36;;;;;;;2.37;2.17;;;;;;;;;;5051858;28;21016;-84
2023/04/28 00:12:02;;;;;;;2.88;2.33;;;;;;;;;;5051619;28;20407;-84
2023/04/28 00:14:28;;;;;;;3.05;2.50;;;;;;;;;;5051832;28;20382;-84
2023/04/28 00:16:56;;;;;;;2.53;2.30;;;;;;;;;;5051462;28;20393;-84
2023/04/28 00:19:22;;;;;;;2.60;2.40;;;;;;;;;;5051991;28;20435;-84
2023/04/28 00:21:48;;;;;;;2.70;2.30;;;;;;;;;;5037393;28;20389;-84
2023/04/28 00:24:14;;;;;;;2.65;2.30;;;;;;;;;;5063039;28;20365;-84
2023/04/28 00:26:40;;;;;;;3.10;2.80;;;;;;;;;;5056127;28;20786;-84
2023/04/28 00:29:06;;;;;;;2.65;2.45;;;;;;;;;;5064112;28;20433;-84
2023/04/28 00:31:34;;;;;;;3.47;2.20;;;;;;;;;;5072546;28;20960;-84
2023/04/28 00:34:00;;;;;;;2.53;2.33;;;;;;;;;;5068987;28;20368;-84
2023/04/28 00:36:29;;;;;;;2.47;2.28;;;;;;;;;;5054784;28;20531;-84
2023/04/28 00:38:55;;;;;;;2.88;2.15;;;;;;;;;;5054601;28;20792;-84
2023/04/28 00:41:21;;;;;;;2.20;2.00;;;;;;;;;;5054808;28;20412;-84
2023/04/28 00:43:48;;;;;;;2.42;2.20;;;;;;;;;;5054685;28;20389;-84
2023/04/28 00:46:22;;;;;;;2.40;2.20;;;;;;;;;;5054677;28;20924;-84
2023/04/28 00:48:49;;;;;;;2.47;2.22;;;;;;;;;;5054364;28;21138;-83
2023/04/28 00:51:15;;;;;;;3.37;2.50;;;;;;;;;;5054589;28;20385;-84
2023/04/28 00:53:41;;;;;;;2.47;2.22;;;;;;;;;;5054456;28;20381;-84
2023/04/28 00:56:07;;;;;;;2.40;2.20;;;;;;;;;;5054542;28;20377;-84
2023/04/28 00:58:34;;;;;;;2.60;2.40;;;;;;;;;;5054230;28;20428;-84
2023/04/28 01:01:02;;;;;;;2.55;2.35;;;;;;;;;;5054309;28;20443;-84
2023/04/28 01:03:28;;;;;;;3.28;2.25;;;;;;;;;;5054710;28;20431;-84
2023/04/28 01:05:54;;;;;;;2.70;2.10;;;;;;;;;;5054383;28;20377;-84
2023/04/28 01:08:33;;;;;;;2.67;2.47;;;;;;;;;;5054280;28;20409;-84
2023/04/28 01:10:59;;;;;;;4.35;2.60;;;;;;;;;;5054169;28;20468;-84
2023/04/28 01:13:25;;;;;;;2.70;2.50;;;;;;;;;;5073712;28;20447;-84
2023/04/28 01:15:51;;;;;;;2.97;2.67;;;;;;;;;;5074226;28;20469;-84
2023/04/28 01:18:17;;;;;;;3.45;2.65;;;;;;;;;;5056256;28;20384;-84
2023/04/28 01:20:43;;;;;;;2.90;2.70;;;;;;;;;;5053679;28;20381;-84
2023/04/28 01:23:13;;;;;;;2.58;2.38;;;;;;;;;;5056000;28;20433;-84
2023/04/28 01:25:40;;;;;;;2.70;2.50;;;;;;;;;;5069788;28;20384;-84
2023/04/28 01:28:06;;;;;;;3.00;2.70;;;;;;;;;;5062882;28;20403;-84
2023/04/28 01:30:32;;;;;;;2.97;2.67;;;;;;;;;;5058033;28;20787;-84
2023/04/28 01:32:57;;;;;;;3.10;2.80;;;;;;;;;;5064488;28;20383;-84
2023/04/28 01:35:23;;;;;;;2.60;2.40;;;;;;;;;;5069075;28;20389;-84
2023/04/28 01:37:50;;;;;;;2.67;2.47;;;;;;;;;;5053664;28;20736;-84
2023/04/28 01:40:16;;;;;;;3.25;2.95;;;;;;;;;;5050743;28;20397;-84
2023/04/28 01:42:41;;;;;;;2.80;2.60;;;;;;;;;;5049736;28;20387;-84
2023/04/28 01:45:08;;;;;;;3.77;2.57;;;;;;;;;;5061098;28;20382;-84
2023/04/28 01:47:34;;;;;;;3.00;2.80;;;;;;;;;;5067620;28;20388;-84
2023/04/28 01:50:00;;;;;;;2.90;2.60;;;;;;;;;;5070183;28;20930;-84
2023/04/28 01:52:26;;;;;;;3.15;2.85;;;;;;;;;;5066817;28;20377;-84
2023/04/28 01:54:53;;;;;;;3.20;2.90;;;;;;;;;;5070153;28;20868;-84
2023/04/28 01:57:19;;;;;;;2.95;2.75;;;;;;;;;;5066863;28;20887;-84
2023/04/28 01:59:45;;;;;;;3.07;2.77;;;;;;;;;;5067996;28;20386;-84
2023/04/28 02:02:11;;;;;;;3.30;3.00;;;;;;;;;;5053455;28;20387;-83
2023/04/28 02:04:37;;;;;;;2.70;2.50;;;;;;;;;;5053124;28;20392;-84
2023/04/28 02:07:03;;;;;;;3.00;2.70;;;;;;;;;;5053156;28;20389;-85
2023/04/28 02:09:29;;;;;;;3.10;2.83;;;;;;;;;;5052932;28;20809;-84
2023/04/28 02:11:55;;;;;;;2.78;2.58;;;;;;;;;;5053190;28;20378;-84
2023/04/28 02:14:22;;;;;;;2.97;2.78;;;;;;;;;;5053117;28;20378;-85
2023/04/28 02:16:48;;;;;;;3.00;2.67;;;;;;;;;;5052969;28;20460;-85
2023/04/28 02:19:14;;;;;;;2.83;2.63;;;;;;;;;;5053157;28;20480;-85
2023/04/28 02:21:41;;;;;;;2.60;2.40;;;;;;;;;;5051300;28;20404;-85
2023/04/28 02:24:08;;;;;;;3.15;2.95;;;;;;;;;;5052424;28;20408;-85
2023/04/28 02:26:34;;;;;;;3.75;3.40;;;;;;;;;;5059779;28;20380;-84
2023/04/28 02:29:03;;;;;;;4.30;3.60;;;;;;;;;;5054389;28;20402;-84
2023/04/28 02:31:29;;;;;;;4.47;3.85;;;;;;;;;;5063063;28;20383;-84
2023/04/28 02:33:55;;;;;;;4.97;3.55;;;;;;;;;;5067243;28;20368;-85
2023/04/28 02:36:21;;;;;;;4.25;3.85;;;;;;;;;;5067475;28;20383;-85
2023/04/28 02:38:47;;;;;;;4.20;3.80;;;;;;;;;;5057566;28;20378;-85
2023/04/28 02:41:14;;;;;;;4.07;3.73;;;;;;;;;;5049926;28;20388;-84
2023/04/28 02:43:41;;;;;;;3.83;3.50;;;;;;;;;;5066258;28;20737;-84
2023/04/28 02:46:07;;;;;;;4.15;3.75;;;;;;;;;;5057824;28;20920;-85
2023/04/28 02:48:36;;;;;;;3.85;3.55;;;;;;;;;;5069068;28;20415;-84
2023/04/28 02:51:02;;;;;;;3.80;3.40;;;;;;;;;;5071031;28;20382;-84
2023/04/28 02:53:28;;;;;;;3.90;3.50;;;;;;;;;;5071821;28;20384;-84
2023/04/28 02:55:54;;;;;;;3.40;3.10;;;;;;;;;;5056659;28;20884;-84
2023/04/28 02:58:20;;;;;;;3.93;3.53;;;;;;;;;;5069993;28;20896;-84
2023/04/28 03:00:46;;;;;;;3.88;3.47;;;;;;;;;;5058809;28;20384;-85
2023/04/28 03:03:12;;;;;;;3.90;3.35;;;;;;;;;;5052004;28;20377;-85
2023/04/28 03:05:38;;;;;;;3.70;3.40;;;;;;;;;;5051183;28;20389;-85
2023/04/28 03:08:05;;;;;;;4.80;3.85;;;;;;;;;;5052169;28;20908;-85
2023/04/28 03:10:31;;;;;;;3.80;3.50;;;;;;;;;;5052934;28;20713;-85
2023/04/28 03:12:57;;;;;;;3.83;3.40;;;;;;;;;;5053068;28;20503;-84
2023/04/28 03:15:23;;;;;;;4.78;3.28;;;;;;;;;;5052624;28;20448;-84
2023/04/28 03:17:49;;;;;;;3.80;3.33;;;;;;;;;;5052804;28;20397;-84
2023/04/28 03:20:15;;;;;;;4.15;3.20;;;;;;;;;;5052690;28;20373;-84
2023/04/28 03:22:41;;;;;;;5.05;3.65;;;;;;;;;;5052679;28;20378;-85
2023/04/28 03:25:07;;;;;;;4.03;3.40;;;;;;;;;;5052389;28;20751;-84
2023/04/28 03:27:33;;;;;;;3.40;3.10;;;;;;;;;;5068233;28;20433;-84
2023/04/28 03:29:59;;;;;;;4.10;3.70;;;;;;;;;;5061453;28;20419;-84
2023/04/28 03:32:25;;;;;;;3.90;3.30;;;;;;;;;;5060156;28;20382;-84
2023/04/28 03:34:51;;;;;;;4.47;3.90;;;;;;;;;;5060553;28;20889;-84
2023/04/28 03:37:17;;;;;;;4.30;3.90;;;;;;;;;;5065595;28;20385;-84
2023/04/28 03:39:43;;;;;;;4.00;3.70;;;;;;;;;;5056133;28;20390;-84
2023/04/28 03:42:09;;;;;;;3.95;3.50;;;;;;;;;;5052862;28;20425;-84
2023/04/28 03:44:35;;;;;;;5.28;3.97;;;;;;;;;;5052255;28;20417;-83
2023/04/28 03:47:01;;;;;;;3.73;3.43;;;;;;;;;;5052732;28;20898;-83
2023/04/28 03:49:27;;;;;;;4.57;3.55;;;;;;;;;;5052184;28;20505;-83
2023/04/28 03:51:53;;;;;;;4.40;4.00;;;;;;;;;;5052654;28;20377;-83
2023/04/28 03:54:19;;;;;;;4.20;3.88;;;;;;;;;;5045292;28;20814;-83
2023/04/28 03:56:45;;;;;;;4.82;3.90;;;;;;;;;;5047744;28;20396;-83
2023/04/28 03:59:11;;;;;;;4.35;3.95;;;;;;;;;;5054996;28;20767;-83
2023/04/28 04:01:37;;;;;;;4.10;3.70;;;;;;;;;;5055203;28;20377;-84
2023/04/28 04:04:04;;;;;;;4.25;3.85;;;;;;;;;;5055168;28;20377;-83
2023/04/28 04:06:30;;;;;;;4.43;4.03;;;;;;;;;;5070495;28;20393;-83
2023/04/28 04:08:56;;;;;;;4.35;3.95;;;;;;;;;;5072772;28;20733;-83
2023/04/28 04:11:22;;;;;;;4.50;4.10;;;;;;;;;;5070311;28;20928;-83
2023/04/28 04:13:48;;;;;;;6.22;4.93;;;;;;;;;;5062656;28;20424;-83
2023/04/28 04:16:14;;;;;;;6.30;5.70;;;;;;;;;;5063418;28;20380;-83
2023/04/28 04:18:40;;;;;;;5.50;5.00;;;;;;;;;;5064344;28;20377;-83
2023/04/28 04:21:06;;;;;;;4.93;4.53;;;;;;;;;;5064655;28;20467;-83
2023/04/28 04:23:32;;;;;;;5.05;4.55;;;;;;;;;;5060290;28;20480;-82
2023/04/28 04:25:58;;;;;;;5.63;4.70;;;;;;;;;;5059387;28;20427;-83
2023/04/28 04:28:25;;;;;;;5.70;5.20;;;;;;;;;;5050282;28;20463;-84
2023/04/28 04:30:51;;;;;;;5.30;4.90;;;;;;;;;;5058725;28;20428;-83
2023/04/28 04:33:17;;;;;;;4.90;4.40;;;;;;;;;;5056990;28;20861;-84
2023/04/28 04:35:43;;;;;;;5.53;4.93;;;;;;;;;;5056443;28;20386;-82
2023/04/28 04:38:09;;;;;;;5.65;5.10;;;;;;;;;;5057632;28;20887;-83
2023/04/28 04:40:35;;;;;;;5.82;5.32;;;;;;;;;;5057453;28;20484;-83
2023/04/28 04:43:01;;;;;;;6.00;5.43;;;;;;;;;;5056774;28;20454;-83
2023/04/28 04:45:27;;;;;;;6.60;6.10;;;;;;;;;;5058592;28;20992;-83
2023/04/28 04:47:53;;;;;;;7.25;6.65;;;;;;;;;;5056550;28;20381;-83
2023/04/28 04:50:19;;;;;;;7.55;6.85;;;;;;;;;;5058618;28;20398;-84
2023/04/28 04:52:45;;;;;;;7.43;6.73;;;;;;;;;;5056625;28;20374;-84
2023/04/28 04:55:11;;;;;;;7.32;6.72;;;;;;;;;;5057597;28;20380;-83
2023/04/28 04:57:37;;;;;;;8.48;7.55;;;;;;;;;;5056248;28;20492;-83
2023/04/28 05:00:04;;;;;;;9.13;8.32;;;;;;;;;;5054450;28;20472;-83
2023/04/28 05:02:30;;;;;;;9.52;8.70;;;;;;;;;;5071946;28;20376;-83
2023/04/28 05:04:56;;;;;;;10.20;9.40;;;;;;;;;;5054502;28;20475;-83
2023/04/28 05:07:22;;;;;;;10.65;9.75;;;;;;;;;;5054227;28;20381;-83
2023/04/28 05:09:48;;;;;;;10.95;10.07;;;;;;;;;;5054027;28;20463;-83
2023/04/28 05:12:14;;;;;;;12.68;11.57;;;;;;;;;;5054209;28;20759;-83
2023/04/28 05:14:40;;;;;;;13.52;12.32;;;;;;;;;;5054081;28;20871;-83
2023/04/28 05:17:06;;;;;;;12.88;11.77;;;;;;;;;;5053886;28;20389;-84
2023/04/28 05:19:32;;;;;;;15.18;13.80;;;;;;;;;;5055553;28;20905;-82
2023/04/28 05:21:59;;;;;;;15.20;14.00;;;;;;;;;;5064569;28;20891;-83
2023/04/28 05:24:25;;;;;;;14.23;13.02;;;;;;;;;;5061304;28;20818;-83
2023/04/28 05:26:52;;;;;;;16.40;14.90;;;;;;;;;;5070160;28;20507;-82
2023/04/28 05:29:19;;;;;;;18.70;16.80;;;;;;;;;;5064247;28;20559;-82
2023/04/28 05:31:45;;;;;;;15.30;14.00;;;;;;;;;;5069827;28;20372;-82
2023/04/28 05:34:11;;;;;;;14.57;13.38;;;;;;;;;;5069329;28;20372;-83
2023/04/28 05:36:37;;;;;;;13.07;12.07;;;;;;;;;;5066739;28;20386;-83
2023/04/28 05:39:03;;;;;;;12.20;11.20;;;;;;;;;;5069711;28;20376;-83
2023/04/28 05:41:29;;;;;;;11.38;10.48;;;;;;;;;;5065697;28;20772;-83
2023/04/28 05:43:55;;;;;;;11.88;10.88;;;;;;;;;;5061187;28;20377;-83
2023/04/28 05:46:21;;;;;;;10.13;9.43;;;;;;;;;;5062374;28;20423;-83
2023/04/28 05:48:47;;;;;;;11.07;10.18;;;;;;;;;;5048595;28;20836;-83
2023/04/28 05:51:13;;;;;;;10.23;9.32;;;;;;;;;;5071519;28;20372;-83
2023/04/28 05:53:39;;;;;;;10.48;9.63;;;;;;;;;;5070358;28;20740;-83
2023/04/28 05:56:05;;;;;;;9.40;8.60;;;;;;;;;;5056139;28;20732;-83
2023/04/28 05:58:31;;;;;;;10.30;9.50;;;;;;;;;;5064552;28;20403;-85
2023/04/28 06:00:57;;;;;;;10.95;10.02;;;;;;;;;;5058152;28;20454;-82
2023/04/28 06:03:24;;;;;;;9.32;8.63;;;;;;;;;;5053207;28;20738;-83
2023/04/28 06:05:50;;;;;;;10.32;9.35;;;;;;;;;;5053159;28;20460;-83
2023/04/28 06:08:16;;;;;;;11.32;10.43;;;;;;;;;;5058934;28;20887;-82
2023/04/28 06:10:42;;;;;;;10.80;10.00;;;;;;;;;;5062367;28;20376;-82
2023/04/28 06:13:08;;;;;;;11.15;10.25;;;;;;;;;;5061878;28;20380;-83
2023/04/28 06:15:34;;;;;;;10.40;9.50;;;;;;;;;;5060416;28;20475;-83
2023/04/28 06:18:01;;;;;;;9.80;9.10;;;;;;;;;;5062755;28;20425;-82
2023/04/28 06:20:27;;;;;;;9.87;9.07;;;;;;;;;;5055943;28;20369;-83
2023/04/28 06:22:53;;;;;;;8.45;7.70;;;;;;;;;;5058361;28;20391;-83
2023/04/28 06:25:19;;;;;;;8.20;7.60;;;;;;;;;;5049611;28;20458;-84
2023/04/28 06:27:45;;;;;;;8.37;7.67;;;;;;;;;;5047517;28;20796;-84
2023/04/28 06:30:17;;;;;;;7.57;7.03;;;;;;;;;;5060864;28;20441;-83
2023/04/28 06:32:43;;;;;;;7.88;7.18;;;;;;;;;;5064769;28;20376;-83
2023/04/28 06:35:09;;;;;;;9.00;8.23;;;;;;;;;;5061204;28;20384;-84
2023/04/28 06:37:35;;;;;;;10.75;9.85;;;;;;;;;;5062605;28;20857;-83
2023/04/28 06:40:01;;;;;;;11.70;10.70;;;;;;;;;;5062756;28;20374;-83
2023/04/28 06:42:28;;;;;;;11.77;10.88;;;;;;;;;;5062776;28;20379;-83
2023/04/28 06:44:54;;;;;;;10.63;9.70;;;;;;;;;;5060158;28;20780;-84
2023/04/28 06:47:20;;;;;;;10.70;9.60;;;;;;;;;;5059005;28;20408;-84
2023/04/28 06:49:48;;;;;;;11.23;10.30;;;;;;;;;;5060163;28;20401;-84
2023/04/28 06:52:15;;;;;;;10.30;9.48;;;;;;;;;;5060608;28;20465;-84
2023/04/28 06:54:41;;;;;;;10.93;10.13;;;;;;;;;;5058612;28;20374;-85
2023/04/28 06:57:07;;;;;;;11.27;10.27;;;;;;;;;;5062108;28;20407;-85
2023/04/28 06:59:33;;;;;;;11.30;10.40;;;;;;;;;;5066327;28;20736;-84
2023/04/28 07:01:59;;;;;;;10.50;9.70;;;;;;;;;;5056406;28;20392;-85
2023/04/28 07:04:26;;;;;;;10.37;9.47;;;;;;;;;;5065668;28;20436;-84
2023/04/28 07:06:52;;;;;;;8.70;8.07;;;;;;;;;;5063887;28;20797;-84
2023/04/28 07:09:18;;;;;;;8.37;7.67;;;;;;;;;;5059946;28;20416;-86
2023/04/28 07:11:44;;;;;;;8.40;7.70;;;;;;;;;;5051154;28;20401;-86
2023/04/28 07:14:10;;;;;;;9.00;8.30;;;;;;;;;;5059216;28;20470;-86
2023/04/28 07:16:36;;;;;;;8.20;7.50;;;;;;;;;;5041665;28;20382;-86
2023/04/28 07:19:02;;;;;;;7.63;7.00;;;;;;;;;;5058877;28;20393;-85
2023/04/28 07:21:28;;;;;;;7.50;6.90;;;;;;;;;;5061678;28;20383;-86
2023/04/28 07:23:57;;;;;;;7.20;6.65;;;;;;;;;;5057524;28;20400;-86
2023/04/28 07:26:23;;;;;;;7.05;6.47;;;;;;;;;;5057167;28;20814;-86
2023/04/28 07:28:50;;;;;;;6.20;5.80;;;;;;;;;;5057569;28;20401;-87
2023/04/28 07:31:16;;;;;;;7.00;6.40;;;;;;;;;;5061203;28;20429;-87
2023/04/28 07:33:42;;;;;;;7.07;6.47;;;;;;;;;;5063204;28;20858;-86
2023/04/28 07:36:08;;;;;;;6.57;6.07;;;;;;;;;;5064006;28;20443;-86
2023/04/28 07:38:34;;;;;;;8.65;7.95;;;;;;;;;;5046802;28;20436;-86
2023/04/28 07:41:01;;;;;;;8.65;7.85;;;;;;;;;;5061759;28;20381;-86
2023/04/28 07:43:27;;;;;;;7.65;7.05;;;;;;;;;;5048848;28;20864;-87
2023/04/28 07:45:53;;;;;;;8.40;7.70;;;;;;;;;;5043446;28;20392;-87
2023/04/28 07:48:19;;;;;;;9.02;8.23;;;;;;;;;;5060099;28;20778;-85
2023/04/28 07:50:45;;;;;;;8.20;7.50;;;;;;;;;;5061334;28;20731;-85
2023/04/28 07:53:11;;;;;;;8.60;7.63;;;;;;;;;;5063825;28;20382;-86
2023/04/28 07:55:40;;;;;;;8.15;7.53;;;;;;;;;;5064173;28;20488;-86
2023/04/28 07:58:07;;;;;;;6.78;6.28;;;;;;;;;;5066463;28;20503;-87
2023/04/28 08:00:33;;;;;;;6.15;5.60;;;;;;;;;;5046038;28;20389;-87
2023/04/28 08:02:59;;;;;;;5.88;5.47;;;;;;;;;;5055644;28;20373;-86
2023/04/28 08:05:25;;;;;;;6.75;6.18;;;;;;;;;;5055543;28;20404;-88
2023/04/28 08:07:51;;;;;;;5.75;5.28;;;;;;;;;;5055277;28;20396;-87
2023/04/28 08:10:17;;;;;;;4.93;4.57;;;;;;;;;;5055451;28;20562;-87
2023/04/28 08:12:44;;;;;;;5.03;4.63;;;;;;;;;;5055350;28;20382;-86
2023/04/28 08:15:10;;;;;;;5.50;5.10;;;;;;;;;;5054801;28;20384;-88
2023/04/28 08:17:36;;;;;;;6.03;5.60;;;;;;;;;;5049660;28;20393;-86
2023/04/28 08:20:03;;;;;;;6.10;5.60;;;;;;;;;;5036785;28;20385;-87
2023/04/28 08:22:29;;;;;;;5.63;5.22;;;;;;;;;;5055515;28;20404;-86
2023/04/28 08:24:55;;;;;;;4.88;4.57;;;;;;;;;;5071343;28;20383;-87
2023/04/28 08:27:22;;;;;;;5.40;5.00;;;;;;;;;;5066779;28;20373;-86
2023/04/28 08:29:49;;;;;;;6.03;5.43;;;;;;;;;;5055184;28;20774;-87
2023/04/28 08:32:15;;;;;;;6.43;5.93;;;;;;;;;;5068499;28;20850;-87
2023/04/28 08:34:41;;;;;;;7.75;7.15;;;;;;;;;;5054931;28;20877;-86
2023/04/28 08:37:07;;;;;;;6.90;6.30;;;;;;;;;;5058977;28;21780;-87
2023/04/28 08:39:34;;;;;;;7.15;6.45;;;;;;;;;;5064181;28;20422;-86
2023/04/28 08:42:03;;;;;;;6.55;5.97;;;;;;;;;;5054476;28;20400;-86
2023/04/28 08:44:32;;;;;;;5.63;5.22;;;;;;;;;;5054569;28;20458;-86
2023/04/28 08:46:59;;;;;;;6.38;5.88;;;;;;;;;;5068723;28;20482;-86
2023/04/28 08:49:32;;;;;;;6.55;6.05;;;;;;;;;;5054617;28;20910;-87
2023/04/28 08:51:59;;;;;;;7.70;7.10;;;;;;;;;;5054655;28;20743;-87
2023/04/28 08:54:30;;;;;;;6.82;6.22;;;;;;;;;;5054584;28;20377;-87
2023/04/28 08:56:56;;;;;;;7.30;6.60;;;;;;;;;;5054401;28;20428;-87
2023/04/28 08:59:23;;;;;;;7.15;6.55;;;;;;;;;;5054001;28;20413;-87
2023/04/28 09:01:49;;;;;;;5.93;5.43;;;;;;;;;;5054638;28;20393;-86
2023/04/28 09:04:18;;;;;;;5.50;5.00;;;;;;;;;;5054724;28;20731;-87
2023/04/28 09:06:45;;;;;;;4.97;4.55;;;;;;;;;;5040892;28;20382;-86
2023/04/28 09:09:30;;;;;;;5.10;4.70;;;;;;;;;;5054153;28;20410;-86
2023/04/28 09:11:58;;;;;;;4.70;4.40;;;;;;;;;;5054270;28;20378;-86
2023/04/28 09:14:24;;;;;;;4.63;4.18;;;;;;;;;;5054385;28;20723;-86
2023/04/28 09:16:51;;;;;;;4.68;4.28;;;;;;;;;;5053872;28;20378;-86
2023/04/28 09:19:17;;;;;;;4.80;4.40;;;;;;;;;;5053636;28;20431;-87
2023/04/28 09:21:56;;;;;;;6.78;5.05;;;;;;;;;;5053869;28;20378;-87
2023/04/28 09:24:31;;;;;;;4.90;4.40;;;;;;;;;;5065649;28;20860;-87
2023/04/28 09:27:01;;;;;;;5.45;5.05;;;;;;;;;;5054722;28;20785;-87
2023/04/28 09:29:27;;;;;;;5.47;4.97;;;;;;;;;;5054120;28;20507;-88
2023/04/28 09:31:54;;;;;;;5.57;5.18;;;;;;;;;;5053719;28;20385;-85
2023/04/28 09:34:21;;;;;;;5.70;5.20;;;;;;;;;;5053888;28;20507;-87
2023/04/28 09:36:47;;;;;;;5.30;4.90;;;;;;;;;;5053710;28;20461;-87
2023/04/28 09:39:13;;;;;;;5.90;5.38;;;;;;;;;;5053902;28;20388;-87
2023/04/28 09:41:40;;;;;;;5.07;4.63;;;;;;;;;;5053712;28;20385;-87
2023/04/28 09:44:10;;;;;;;6.40;5.80;;;;;;;;;;5055220;28;20373;-86
2023/04/28 09:46:36;;;;;;;6.50;5.90;;;;;;;;;;5054994;28;20406;-87
2023/04/28 09:49:02;;;;;;;6.90;6.40;;;;;;;;;;5038773;28;20470;-87
2023/04/28 09:51:28;;;;;;;7.20;6.60;;;;;;;;;;5054333;28;20386;-89
2023/04/28 09:53:56;;;;;;;8.35;7.47;;;;;;;;;;5053912;28;20401;-90
2023/04/28 09:56:24;;;;;;;8.63;7.85;;;;;;;;;;5073297;28;20387;-89
2023/04/28 09:58:51;;;;;;;7.07;6.47;;;;;;;;;;5038151;28;20455;-87
2023/04/28 10:01:17;;;;;;;7.30;6.75;;;;;;;;;;5065712;28;20468;-87
2023/04/28 10:03:43;;;;;;;7.93;7.30;;;;;;;;;;5053401;28;20459;-86
2023/04/28 10:06:09;;;;;;;7.07;6.57;;;;;;;;;;5062804;28;20394;-87
2023/04/28 10:08:35;;;;;;;7.38;6.78;;;;;;;;;;5059106;28;20411;-84
2023/04/28 10:11:01;;;;;;;8.32;7.63;;;;;;;;;;5063389;28;20434;-85
2023/04/28 10:13:28;;;;;;;6.82;6.22;;;;;;;;;;5060606;28;20379;-84
2023/04/28 10:15:54;;;;;;;6.30;5.80;;;;;;;;;;5057002;28;20515;-84
2023/04/28 10:18:21;;;;;;;6.50;6.00;;;;;;;;;;5054480;28;20392;-84
2023/04/28 10:20:49;;;;;;;7.10;6.50;;;;;;;;;;5059210;28;20395;-83
2023/04/28 10:23:33;;;;;;;6.45;5.95;;;;;;;;;;5055787;28;20460;-84
2023/04/28 10:26:00;;;;;;;6.30;5.90;;;;;;;;;;5051504;28;20377;-83
2023/04/28 10:28:29;;;;;;;6.28;5.88;;;;;;;;;;5068148;28;20416;-84
2023/04/28 10:31:10;;;;;;;6.32;5.82;;;;;;;;;;5066733;28;20383;-84
2023/04/28 10:33:37;;;;;;;6.50;6.00;;;;;;;;;;5049164;28;20376;-84
2023/04/28 10:36:03;;;;;;;6.67;6.07;;;;;;;;;;5055941;28;20468;-86
2023/04/28 10:38:30;;;;;;;5.93;5.53;;;;;;;;;;5052782;28;20381;-83
2023/04/28 10:41:01;;;;;;;4.95;4.65;;;;;;;;;;5055966;28;20381;-83
2023/04/28 10:43:30;;;;;;;4.57;4.28;;;;;;;;;;5057134;28;20431;-84
2023/04/28 10:45:59;;;;;;;5.97;5.57;;;;;;;;;;5059907;28;20397;-86
2023/04/28 10:48:25;;;;;;;5.97;5.57;;;;;;;;;;5056312;28;20413;-83
2023/04/28 10:51:06;;;;;;;6.38;5.95;;;;;;;;;;5059164;28;20392;-83
2023/04/28 10:53:44;;;;;;;6.55;6.07;;;;;;;;;;5057271;28;20580;-85
2023/04/28 10:56:11;;;;;;;6.55;6.05;;;;;;;;;;5050930;28;20383;-85
2023/04/28 10:58:41;;;;;;;8.10;7.45;;;;;;;;;;5062581;28;20538;-83
2023/04/28 11:01:20;;;;;;;8.97;8.37;;;;;;;;;;5067843;28;20738;-83
2023/04/28 11:06:24;;;;;;;8.90;8.27;;;;;;;;;;5063628;28;20379;-83
2023/04/28 11:08:50;;;;;;;9.93;9.18;;;;;;;;;;5068610;28;20477;-83
2023/04/28 11:11:17;;;;;;;10.02;9.32;;;;;;;;;;5060567;28;20377;-84
2023/04/28 11:13:45;;;;;;;9.85;9.15;;;;;;;;;;5053102;28;20380;-83
2023/04/28 11:16:13;;;;;;;9.53;8.83;;;;;;;;;;5056819;28;20418;-83
2023/04/28 11:18:58;;;;;;;9.35;8.75;;;;;;;;;;5061943;28;20382;-83
2023/04/28 11:21:27;;;;;;;9.82;9.07;;;;;;;;;;5060931;28;20454;-83
2023/04/28 11:23:53;;;;;;;9.25;8.55;;;;;;;;;;5063395;28;20848;-84
2023/04/28 11:26:19;;;;;;;11.53;10.57;;;;;;;;;;5062288;28;20380;-84
2023/04/28 11:28:50;;;;;;;10.45;9.57;;;;;;;;;;5057118;28;20511;-83
2023/04/28 11:31:21;;;;;;;11.80;10.85;;;;;;;;;;5060014;28;20379;-84
2023/04/28 11:33:50;;;;;;;11.73;10.75;;;;;;;;;;5057075;28;20833;-84
2023/04/28 11:36:22;;;;;;;10.57;9.68;;;;;;;;;;5061243;28;20892;-84
2023/04/28 11:38:48;;;;;;;10.70;9.90;;;;;;;;;;5042717;28;20844;-83
2023/04/28 11:41:14;;;;;;;12.43;11.27;;;;;;;;;;5059772;28;20724;-84
2023/04/28 11:43:40;;;;;;;11.65;10.75;;;;;;;;;;5063465;28;20483;-84
2023/04/28 11:46:10;;;;;;;11.88;11.07;;;;;;;;;;5065131;28;20483;-84
2023/04/28 11:48:36;;;;;;;10.57;9.88;;;;;;;;;;5054903;28;20746;-82
2023/04/28 11:51:02;;;;;;;10.37;9.57;;;;;;;;;;5065996;28;20527;-84
2023/04/28 11:53:43;;;;;;;10.90;10.07;;;;;;;;;;5064613;28;20752;-84
2023/04/28 11:56:10;;;;;;;9.40;8.70;;;;;;;;;;5066124;28;20434;-84
2023/04/28 11:58:36;;;;;;;9.55;8.85;;;;;;;;;;5064285;28;20403;-83
2023/04/28 12:01:06;;;;;;;8.43;7.80;;;;;;;;;;5067551;28;20929;-83
2023/04/28 12:03:32;;;;;;;8.60;8.00;;;;;;;;;;5055221;28;20392;-84
2023/04/28 12:05:58;;;;;;;9.18;8.48;;;;;;;;;;5051559;28;20391;-85
2023/04/28 12:08:28;;;;;;;9.90;9.10;;;;;;;;;;5059257;28;20404;-83
2023/04/28 12:11:08;;;;;;;8.98;8.27;;;;;;;;;;5037994;28;20386;-83
2023/04/28 12:13:35;;;;;;;8.77;8.07;;;;;;;;;;5059620;28;20372;-84
2023/04/28 12:16:02;;;;;;;8.65;8.05;;;;;;;;;;5053495;28;20468;-83
2023/04/28 12:18:28;;;;;;;8.93;8.23;;;;;;;;;;5053666;28;20409;-82
2023/04/28 12:20:54;;;;;;;8.75;8.15;;;;;;;;;;5058803;28;20384;-82
2023/04/28 12:23:33;;;;;;;9.20;8.47;;;;;;;;;;5056605;28;20385;-83
2023/04/28 12:25:59;;;;;;;9.95;9.25;;;;;;;;;;5055667;28;20377;-83
2023/04/28 12:28:39;;;;;;;9.10;8.50;;;;;;;;;;5067118;28;20411;-83
2023/04/28 12:31:07;;;;;;;8.52;7.93;;;;;;;;;;5074680;28;20388;-83
2023/04/28 12:33:36;;;;;;;8.20;7.60;;;;;;;;;;5061249;28;20376;-83
2023/04/28 12:36:02;;;;;;;9.23;8.52;;;;;;;;;;5064790;28;20392;-82
2023/04/28 12:38:29;;;;;;;9.73;8.98;;;;;;;;;;5065981;28;20421;-83
2023/04/28 12:40:55;;;;;;;8.40;7.90;;;;;;;;;;5066501;28;20379;-83
2023/04/28 12:43:22;;;;;;;10.48;9.68;;;;;;;;;;5064268;28;20393;-83
2023/04/28 12:45:49;;;;;;;9.50;8.90;;;;;;;;;;5068128;28;20813;-83
2023/04/28 12:48:15;;;;;;;9.73;8.82;;;;;;;;;;5062168;28;20400;-82
2023/04/28 12:50:41;;;;;;;10.68;9.68;;;;;;;;;;5068276;28;20433;-82
2023/04/28 12:53:07;;;;;;;11.20;10.40;;;;;;;;;;5063728;28;20381;-83
2023/04/28 12:55:33;;;;;;;11.48;10.57;;;;;;;;;;5066479;28;20379;-82
2023/04/28 12:57:59;;;;;;;10.27;9.38;;;;;;;;;;5059753;28;20399;-82
2023/04/28 13:00:25;;;;;;;9.55;8.85;;;;;;;;;;5061647;28;20387;-82
2023/04/28 13:02:52;;;;;;;10.27;9.45;;;;;;;;;;5063775;28;20381;-80
2023/04/28 13:05:21;;;;;;;10.13;9.40;;;;;;;;;;5054309;28;20412;-81
2023/04/28 13:07:48;;;;;;;9.43;8.63;;;;;;;;;;5054573;28;20461;-82
2023/04/28 13:10:14;;;;;;;10.40;9.60;;;;;;;;;;5054055;28;20874;-82
2023/04/28 13:12:40;;;;;;;9.43;8.65;;;;;;;;;;5054168;28;20385;-81
2023/04/28 13:15:07;;;;;;;8.38;7.78;;;;;;;;;;5054434;28;20377;-83
2023/04/28 13:17:33;;;;;;;8.50;7.85;;;;;;;;;;5053889;28;20397;-81
2023/04/28 13:20:02;;;;;;;7.78;7.18;;;;;;;;;;5054115;28;20715;-81
2023/04/28 13:22:28;;;;;;;8.98;8.18;;;;;;;;;;5035989;28;20906;-81
2023/04/28 13:24:54;;;;;;;7.32;6.82;;;;;;;;;;5054127;28;20459;-80
2023/04/28 13:27:20;;;;;;;7.57;6.97;;;;;;;;;;5067083;28;20463;-81
2023/04/28 13:29:46;;;;;;;7.45;6.53;;;;;;;;;;5072466;28;20400;-81
2023/04/28 13:32:12;;;;;;;7.55;6.95;;;;;;;;;;5071624;28;20714;-81
2023/04/28 13:34:39;;;;;;;8.27;7.57;;;;;;;;;;5054676;28;20421;-82
2023/04/28 13:37:05;;;;;;;7.40;6.80;;;;;;;;;;5061667;28;20426;-82
2023/04/28 13:39:32;;;;;;;7.82;7.22;;;;;;;;;;5059765;28;20381;-82
2023/04/28 13:41:58;;;;;;;7.80;7.20;;;;;;;;;;5062854;28;20864;-81
2023/04/28 13:44:24;;;;;;;8.38;7.78;;;;;;;;;;5063255;28;20414;-81
2023/04/28 13:46:52;;;;;;;7.47;6.88;;;;;;;;;;5060870;28;20465;-82
2023/04/28 13:49:18;;;;;;;6.55;6.15;;;;;;;;;;5064951;28;20427;-81
2023/04/28 13:51:44;;;;;;;6.93;6.35;;;;;;;;;;5060078;28;20378;-81
2023/04/28 13:54:11;;;;;;;6.35;5.85;;;;;;;;;;5065257;28;20458;-81
2023/04/28 13:56:37;;;;;;;7.10;6.50;;;;;;;;;;5058786;28;20922;-81
2023/04/28 13:59:03;;;;;;;6.22;5.70;;;;;;;;;;5038003;28;20900;-82
2023/04/28 14:01:29;;;;;;;6.30;5.80;;;;;;;;;;5069258;28;20416;-82
2023/04/28 14:03:55;;;;;;;6.15;5.55;;;;;;;;;;5053991;28;20377;-82
2023/04/28 14:06:21;;;;;;;5.22;4.82;;;;;;;;;;5053255;28;20381;-81
2023/04/28 14:08:47;;;;;;;5.20;4.80;;;;;;;;;;5052907;28;20411;-81
2023/04/28 14:11:13;;;;;;;5.78;5.25;;;;;;;;;;5053138;28;20790;-81
2023/04/28 14:13:39;;;;;;;5.97;4.85;;;;;;;;;;5053036;28;20436;-81
2023/04/28 14:16:06;;;;;;;5.22;4.72;;;;;;;;;;5053377;28;20373;-81
2023/04/28 14:18:32;;;;;;;5.70;5.18;;;;;;;;;;5051016;28;20735;-81
2023/04/28 14:20:58;;;;;;;5.10;4.55;;;;;;;;;;5052832;28;20414;-81
2023/04/28 14:23:25;;;;;;;5.05;4.57;;;;;;;;;;5052919;28;20384;-81
2023/04/28 14:25:55;;;;;;;4.63;4.32;;;;;;;;;;5052670;28;20382;-82
2023/04/28 14:28:21;;;;;;;4.53;4.13;;;;;;;;;;5052612;28;20464;-82
2023/04/28 14:30:48;;;;;;;4.40;3.97;;;;;;;;;;5052599;28;20388;-81
2023/04/28 14:33:14;;;;;;;4.20;3.80;;;;;;;;;;5052718;28;20859;-81
2023/04/28 14:35:40;;;;;;;4.25;3.85;;;;;;;;;;5051226;28;21597;-82
2023/04/28 14:38:06;;;;;;;4.00;3.70;;;;;;;;;;5052314;28;20713;-81
2023/04/28 14:40:32;;;;;;;4.50;4.10;;;;;;;;;;5052447;28;20443;-81
2023/04/28 14:42:58;;;;;;;3.97;3.58;;;;;;;;;;5052375;28;20382;-81